Time;durP1;ratioP1;P1;durP2;ratioP2;P2;SDS_P1;SDS_P2;PMS_P1;PMS_P2;Temp;Humidity;BMP_temperature;BMP_pressure;BME280_temperature;BME280_humidity;BME280_pressure;Samples;Min_cycle;Max_cycle;Signal;HPM_P1;HPM_P2
2022/03/25 00:01:31;;;;;;;;;;;8.00;96.10;;;;;;5096641;28;20416;-46
2022/03/25 00:03:57;;;;;;;;;;;8.00;97.20;;;;;;5095917;28;20282;-48
2022/03/25 00:06:23;;;;;;;;;;;8.00;96.20;;;;;;5096278;28;20373;-49
2022/03/25 00:08:49;;;;;;;;;;;8.00;95.30;;;;;;5094960;28;19988;-45
2022/03/25 00:11:14;;;;;;;;;;;7.90;97.90;;;;;;5096221;28;19908;-46
2022/03/25 00:13:40;;;;;;;;;;;8.00;97.80;;;;;;5096105;28;19908;-46
2022/03/25 00:16:06;;;;;;;;;;;7.90;95.20;;;;;;5096049;28;19948;-47
2022/03/25 00:18:32;;;;;;;;;;;7.90;96.60;;;;;;5095998;28;19908;-44
2022/03/25 00:20:58;;;;;;;;;;;7.90;97.40;;;;;;5096082;28;20278;-47
2022/03/25 00:23:24;;;;;;;;;;;7.80;97.10;;;;;;5095575;28;19912;-45
2022/03/25 00:25:50;;;;;;;;;;;7.80;97.30;;;;;;5096247;28;19931;-44
2022/03/25 00:28:16;;;;;;;;;;;7.70;96.60;;;;;;5096078;28;20405;-46
2022/03/25 00:30:42;;;;;;;;;;;7.70;97.70;;;;;;5095719;28;19924;-47
2022/03/25 00:33:08;;;;;;;;;;;7.70;98.10;;;;;;5095487;28;19999;-48
2022/03/25 00:35:33;;;;;;;;;;;7.70;98.00;;;;;;5094342;28;20068;-47
2022/03/25 00:37:59;;;;;;;;;;;7.60;96.30;;;;;;5095614;28;20056;-49
2022/03/25 00:40:24;;;;;;;;;;;7.60;96.60;;;;;;5094408;28;19912;-44
2022/03/25 00:42:50;;;;;;;;;;;7.70;96.90;;;;;;5095900;28;19908;-50
2022/03/25 00:45:16;;;;;;;;;;;7.60;97.80;;;;;;5095263;28;20003;-45
2022/03/25 00:47:42;;;;;;;;;;;7.60;97.40;;;;;;5095500;28;19916;-45
2022/03/25 00:50:08;;;;;;;;;;;7.60;96.90;;;;;;5095269;28;19915;-45
2022/03/25 00:52:34;;;;;;;;;;;7.50;97.60;;;;;;5095457;28;19939;-45
2022/03/25 00:55:00;;;;;;;;;;;7.50;97.30;;;;;;5095350;28;20003;-46
2022/03/25 00:57:27;;;;;;;;;;;7.50;98.90;;;;;;5095217;28;19962;-45
2022/03/25 00:59:53;;;;;;;;;;;7.50;98.50;;;;;;5095332;28;19908;-45
2022/03/25 01:02:18;;;;;;;;;;;7.50;97.10;;;;;;5095293;28;19909;-45
2022/03/25 01:04:44;;;;;;;;;;;7.40;97.80;;;;;;5095502;28;19912;-45
2022/03/25 01:07:09;;;;;;;;;;;7.30;99.50;;;;;;5095104;28;19912;-45
2022/03/25 01:09:35;;;;;;;;;;;7.40;98.00;;;;;;5089894;28;19912;-46
2022/03/25 01:12:00;;;;;;;;;;;7.40;98.80;;;;;;5093713;28;19996;-47
2022/03/25 01:14:27;;;;;;;;;;;7.40;97.10;;;;;;5093224;28;19989;-45
2022/03/25 01:16:52;;;;;;;;;;;7.50;95.80;;;;;;5093374;28;20434;-47
2022/03/25 01:19:19;;;;;;;;;;;7.40;95.00;;;;;;5092341;28;19912;-45
2022/03/25 01:21:45;;;;;;;;;;;7.30;97.00;;;;;;5093629;28;19908;-46
2022/03/25 01:24:11;;;;;;;;;;;7.20;96.30;;;;;;5093336;28;19924;-48
2022/03/25 01:26:36;;;;;;;;;;;7.10;96.20;;;;;;5092379;28;19941;-47
2022/03/25 01:29:04;;;;;;;;;;;7.10;97.90;;;;;;5093643;28;20373;-45
2022/03/25 01:31:30;;;;;;;;;;;7.10;97.50;;;;;;5095624;28;19927;-50
2022/03/25 01:33:56;;;;;;;;;;;7.10;97.30;;;;;;5093135;28;19912;-46
2022/03/25 01:36:22;;;;;;;;;;;7.10;97.10;;;;;;5092135;28;20389;-47
2022/03/25 01:38:48;;;;;;;;;;;7.00;97.80;;;;;;5093422;28;19912;-46
2022/03/25 01:41:17;;;;;;;;;;;7.00;97.10;;;;;;5093276;28;20358;-48
2022/03/25 01:43:50;;;;;;;;;;;7.00;97.40;;;;;;5093634;28;19912;-45
2022/03/25 01:46:16;;;;;;;;;;;7.00;96.50;;;;;;5093805;28;20253;-49
2022/03/25 01:48:41;;;;;;;;;;;6.90;97.10;;;;;;5093016;28;20007;-50
2022/03/25 01:51:07;;;;;;;;;;;6.80;96.90;;;;;;5089129;28;19995;-47
2022/03/25 01:53:32;;;;;;;;;;;6.80;97.80;;;;;;5092972;28;20011;-47
2022/03/25 01:55:59;;;;;;;;;;;6.70;97.00;;;;;;5093872;28;20278;-47
2022/03/25 01:58:26;;;;;;;;;;;6.70;97.70;;;;;;5094213;28;19920;-48
2022/03/25 02:00:51;;;;;;;;;;;6.70;97.00;;;;;;5094225;28;20262;-46
2022/03/25 02:03:17;;;;;;;;;;;6.60;96.90;;;;;;5093971;28;19908;-49
2022/03/25 02:05:44;;;;;;;;;;;6.60;96.70;;;;;;5094171;28;19940;-45
2022/03/25 02:08:09;;;;;;;;;;;6.50;95.70;;;;;;5094285;28;19915;-47
2022/03/25 02:10:35;;;;;;;;;;;6.40;97.00;;;;;;5108655;28;20094;-46
2022/03/25 02:13:01;;;;;;;;;;;6.40;97.30;;;;;;5113193;28;19972;-46
2022/03/25 02:15:30;;;;;;;;;;;6.40;99.20;;;;;;5114318;28;19951;-46
2022/03/25 02:17:57;;;;;;;;;;;6.40;98.20;;;;;;5109296;28;19947;-48
2022/03/25 02:20:22;;;;;;;;;;;6.40;97.60;;;;;;5093935;28;20090;-48
2022/03/25 02:22:48;;;;;;;;;;;6.50;98.00;;;;;;5093951;28;19946;-48
2022/03/25 02:25:17;;;;;;;;;;;6.50;98.30;;;;;;5094168;28;20014;-44
2022/03/25 02:27:43;;;;;;;;;;;6.50;97.50;;;;;;5097497;28;19909;-47
2022/03/25 02:30:09;;;;;;;;;;;6.50;97.50;;;;;;5097774;28;19920;-48
2022/03/25 02:32:35;;;;;;;;;;;6.40;98.00;;;;;;5098063;28;19908;-46
2022/03/25 02:35:01;;;;;;;;;;;6.30;98.50;;;;;;5096547;28;20282;-46
2022/03/25 02:37:26;;;;;;;;;;;6.40;99.40;;;;;;5091780;28;20002;-48
2022/03/25 02:39:52;;;;;;;;;;;6.30;98.10;;;;;;5117575;28;19961;-46
2022/03/25 02:42:18;;;;;;;;;;;6.30;98.60;;;;;;5111640;28;19916;-47
2022/03/25 02:44:43;;;;;;;;;;;6.30;98.40;;;;;;5096614;28;20338;-47
2022/03/25 02:47:09;;;;;;;;;;;6.30;99.50;;;;;;5096571;28;20267;-44
2022/03/25 02:49:34;;;;;;;;;;;6.30;98.90;;;;;;5097546;28;19927;-46
2022/03/25 02:52:00;;;;;;;;;;;6.30;97.80;;;;;;5096842;28;19965;-45
2022/03/25 02:54:25;;;;;;;;;;;6.30;98.30;;;;;;5096339;28;19912;-49
2022/03/25 02:56:51;;;;;;;;;;;6.20;98.30;;;;;;5093360;28;19916;-45
2022/03/25 02:59:16;;;;;;;;;;;6.20;99.60;;;;;;5096076;28;19908;-47
2022/03/25 03:01:42;;;;;;;;;;;6.20;99.90;;;;;;5094917;28;19909;-45
2022/03/25 03:04:09;;;;;;;;;;;6.10;99.00;;;;;;5095832;28;19958;-51
2022/03/25 03:06:34;;;;;;;;;;;6.10;97.70;;;;;;5094845;28;19912;-47
2022/03/25 03:09:00;;;;;;;;;;;6.10;98.80;;;;;;5095918;28;19908;-44
2022/03/25 03:11:28;;;;;;;;;;;6.00;98.30;;;;;;5098664;28;19920;-48
2022/03/25 03:13:53;;;;;;;;;;;6.00;97.80;;;;;;5116769;28;19912;-50
2022/03/25 03:16:19;;;;;;;;;;;6.00;98.10;;;;;;5116468;28;19912;-47
2022/03/25 03:18:44;;;;;;;;;;;6.10;99.60;;;;;;5116440;28;19914;-47
2022/03/25 03:21:10;;;;;;;;;;;6.10;99.90;;;;;;5116512;28;19907;-46
2022/03/25 03:23:36;;;;;;;;;;;6.00;99.90;;;;;;5115558;28;20387;-46
2022/03/25 03:26:01;;;;;;;;;;;6.10;99.90;;;;;;5116274;28;19908;-45
2022/03/25 03:28:27;;;;;;;;;;;6.10;99.90;;;;;;5116421;28;19908;-44
2022/03/25 03:30:54;;;;;;;;;;;6.10;99.90;;;;;;5117298;28;19920;-45
2022/03/25 03:33:19;;;;;;;;;;;6.10;99.90;;;;;;5115988;28;19914;-47
2022/03/25 03:35:45;;;;;;;;;;;6.10;99.90;;;;;;5116910;28;20006;-45
2022/03/25 03:38:10;;;;;;;;;;;6.10;99.90;;;;;;5116800;28;20006;-49
2022/03/25 03:40:38;;;;;;;;;;;6.10;99.90;;;;;;5117470;28;20003;-47
2022/03/25 03:43:04;;;;;;;;;;;6.10;99.90;;;;;;5117080;28;19927;-45
2022/03/25 03:45:32;;;;;;;;;;;5.90;99.90;;;;;;5117008;28;20007;-48
2022/03/25 03:47:57;;;;;;;;;;;5.90;99.90;;;;;;5116704;28;20243;-47
2022/03/25 03:50:24;;;;;;;;;;;5.90;99.90;;;;;;5117013;28;19915;-46
2022/03/25 03:52:49;;;;;;;;;;;5.90;99.90;;;;;;5116439;28;19908;-46
2022/03/25 03:55:15;;;;;;;;;;;6.00;99.90;;;;;;5117006;28;19919;-44
2022/03/25 03:57:41;;;;;;;;;;;6.00;99.90;;;;;;5115778;28;19998;-44
2022/03/25 04:00:10;;;;;;;;;;;5.90;99.90;;;;;;5115750;28;19930;-50
2022/03/25 04:02:36;;;;;;;;;;;5.90;99.90;;;;;;5116831;28;19994;-49
2022/03/25 04:05:02;;;;;;;;;;;6.00;99.90;;;;;;5116530;28;20006;-45
2022/03/25 04:07:27;;;;;;;;;;;5.90;99.90;;;;;;5115515;28;19908;-45
2022/03/25 04:09:53;;;;;;;;;;;5.90;99.90;;;;;;5116344;28;19926;-44
2022/03/25 04:12:18;;;;;;;;;;;5.80;99.90;;;;;;5116610;28;20002;-47
2022/03/25 04:14:44;;;;;;;;;;;5.80;99.90;;;;;;5116464;28;19977;-47
2022/03/25 04:17:11;;;;;;;;;;;5.80;99.90;;;;;;5116307;28;19935;-47
2022/03/25 04:19:37;;;;;;;;;;;5.80;99.90;;;;;;5116616;28;20000;-47
2022/03/25 04:22:02;;;;;;;;;;;5.80;99.90;;;;;;5116147;28;19908;-50
2022/03/25 04:24:28;;;;;;;;;;;5.80;99.90;;;;;;5116099;28;20278;-47
2022/03/25 04:26:53;;;;;;;;;;;5.70;99.90;;;;;;5116371;28;20003;-49
2022/03/25 04:29:19;;;;;;;;;;;5.70;99.90;;;;;;5116278;28;20014;-46
2022/03/25 04:31:45;;;;;;;;;;;5.70;99.90;;;;;;5116259;28;20368;-46
2022/03/25 04:34:10;;;;;;;;;;;5.80;99.90;;;;;;5115813;28;20255;-48
2022/03/25 04:36:36;;;;;;;;;;;5.80;99.90;;;;;;5115753;28;19912;-47
2022/03/25 04:39:01;;;;;;;;;;;5.80;99.90;;;;;;5114780;28;19908;-45
2022/03/25 04:41:27;;;;;;;;;;;5.80;99.90;;;;;;5115873;28;19908;-46
2022/03/25 04:43:52;;;;;;;;;;;5.80;99.90;;;;;;5116386;28;19989;-46
2022/03/25 04:46:18;;;;;;;;;;;5.80;99.90;;;;;;5115479;28;20330;-44
2022/03/25 04:48:44;;;;;;;;;;;5.70;99.90;;;;;;5114853;28;19911;-46
2022/03/25 04:51:09;;;;;;;;;;;5.70;99.90;;;;;;5115802;28;19907;-47
2022/03/25 04:53:35;;;;;;;;;;;5.70;99.90;;;;;;5115733;28;19915;-46
2022/03/25 04:56:01;;;;;;;;;;;5.70;99.90;;;;;;5114185;28;19912;-47
2022/03/25 04:58:27;;;;;;;;;;;5.70;99.90;;;;;;5115667;28;19911;-47
2022/03/25 05:00:52;;;;;;;;;;;5.60;99.90;;;;;;5115272;28;19907;-47
2022/03/25 05:03:19;;;;;;;;;;;5.60;99.90;;;;;;5115463;28;19908;-46
2022/03/25 05:05:45;;;;;;;;;;;5.60;99.90;;;;;;5115274;28;19998;-46
2022/03/25 05:08:10;;;;;;;;;;;5.60;99.90;;;;;;5115283;28;19951;-47
2022/03/25 05:10:37;;;;;;;;;;;5.60;99.90;;;;;;5115155;28;19908;-46
2022/03/25 05:13:03;;;;;;;;;;;5.60;99.90;;;;;;5113809;28;19912;-49
2022/03/25 05:15:29;;;;;;;;;;;5.70;99.90;;;;;;5114869;28;19964;-49
2022/03/25 05:17:54;;;;;;;;;;;5.70;99.90;;;;;;5114567;28;19945;-48
2022/03/25 05:20:20;;;;;;;;;;;5.80;99.90;;;;;;5115166;28;19907;-45
2022/03/25 05:22:46;;;;;;;;;;;5.80;99.90;;;;;;5115578;28;19908;-47
2022/03/25 05:25:12;;;;;;;;;;;5.90;99.90;;;;;;5115149;28;19993;-47
2022/03/25 05:27:44;;;;;;;;;;;5.80;99.90;;;;;;5115114;28;20025;-51
2022/03/25 05:30:11;;;;;;;;;;;5.80;99.90;;;;;;5114882;28;19927;-47
2022/03/25 05:32:38;;;;;;;;;;;5.90;99.90;;;;;;5115333;28;20376;-46
2022/03/25 05:35:06;;;;;;;;;;;5.90;99.90;;;;;;5114766;28;19942;-44
2022/03/25 05:37:34;;;;;;;;;;;5.90;99.90;;;;;;5113852;28;20464;-45
2022/03/25 05:40:00;;;;;;;;;;;5.90;99.90;;;;;;5111638;28;19961;-52
2022/03/25 05:42:26;;;;;;;;;;;6.00;99.90;;;;;;5086808;28;19911;-46
2022/03/25 05:44:52;;;;;;;;;;;6.00;99.90;;;;;;5114683;28;19908;-48
2022/03/25 05:47:17;;;;;;;;;;;6.10;99.90;;;;;;5102519;28;19908;-47
2022/03/25 05:49:43;;;;;;;;;;;6.20;99.90;;;;;;5084774;28;19912;-46
2022/03/25 05:52:08;;;;;;;;;;;6.30;99.90;;;;;;5094185;28;20351;-48
2022/03/25 05:54:34;;;;;;;;;;;6.40;99.90;;;;;;5089739;28;19966;-45
2022/03/25 05:56:59;;;;;;;;;;;6.40;99.90;;;;;;5090814;28;19970;-47
2022/03/25 05:59:25;;;;;;;;;;;6.50;99.90;;;;;;5089499;28;19916;-47
2022/03/25 06:01:50;;;;;;;;;;;6.60;99.90;;;;;;5088453;28;19995;-47
2022/03/25 06:04:16;;;;;;;;;;;6.70;99.90;;;;;;5087541;28;20351;-44
2022/03/25 06:06:41;;;;;;;;;;;6.80;99.90;;;;;;5093390;28;19908;-49
2022/03/25 06:09:07;;;;;;;;;;;6.90;99.90;;;;;;5097687;28;19916;-46
2022/03/25 06:11:32;;;;;;;;;;;7.00;99.90;;;;;;5093282;28;19915;-49
2022/03/25 06:13:58;;;;;;;;;;;7.10;99.90;;;;;;5092894;28;20279;-48
2022/03/25 06:16:23;;;;;;;;;;;7.00;99.90;;;;;;5097745;28;19942;-46
2022/03/25 06:18:49;;;;;;;;;;;7.00;99.90;;;;;;5096420;28;20373;-49
2022/03/25 06:21:16;;;;;;;;;;;7.10;99.90;;;;;;5077564;28;20011;-46
2022/03/25 06:23:42;;;;;;;;;;;7.10;99.90;;;;;;5073322;28;19966;-47
2022/03/25 06:26:07;;;;;;;;;;;7.30;99.90;;;;;;5073312;28;19908;-46
2022/03/25 06:28:33;;;;;;;;;;;7.40;99.90;;;;;;5072778;28;19912;-45
2022/03/25 06:30:59;;;;;;;;;;;7.40;99.90;;;;;;5073400;28;19920;-46
2022/03/25 06:33:25;;;;;;;;;;;7.60;99.90;;;;;;5073602;28;19999;-44
2022/03/25 06:35:51;;;;;;;;;;;7.70;99.90;;;;;;5073556;28;19920;-45
2022/03/25 06:38:18;;;;;;;;;;;7.80;99.90;;;;;;5088410;28;19919;-46
2022/03/25 06:40:43;;;;;;;;;;;7.80;99.90;;;;;;5071742;28;19916;-46
2022/03/25 06:43:09;;;;;;;;;;;8.00;99.90;;;;;;5073041;28;19908;-47
2022/03/25 06:45:34;;;;;;;;;;;8.00;99.90;;;;;;5072921;28;19909;-47
2022/03/25 06:48:00;;;;;;;;;;;8.20;99.90;;;;;;5105548;28;19909;-46
2022/03/25 06:50:26;;;;;;;;;;;8.40;99.90;;;;;;5072501;28;19916;-46
2022/03/25 06:52:52;;;;;;;;;;;8.40;99.10;;;;;;5073014;28;20374;-45
2022/03/25 06:55:17;;;;;;;;;;;8.40;98.80;;;;;;5072922;28;19935;-48
2022/03/25 06:57:43;;;;;;;;;;;8.40;98.30;;;;;;5072250;28;20327;-47
2022/03/25 07:00:12;;;;;;;;;;;8.60;99.70;;;;;;5072745;28;19951;-46
2022/03/25 07:02:41;;;;;;;;;;;8.60;97.80;;;;;;5072497;28;19908;-46
2022/03/25 07:05:09;;;;;;;;;;;8.90;99.00;;;;;;5070962;28;20274;-46
2022/03/25 07:07:36;;;;;;;;;;;9.00;99.90;;;;;;5071081;28;20313;-52
2022/03/25 07:10:01;;;;;;;;;;;9.10;97.30;;;;;;5072048;28;20322;-46
2022/03/25 07:12:27;;;;;;;;;;;9.20;98.50;;;;;;5073715;28;19909;-49
2022/03/25 07:14:52;;;;;;;;;;;9.30;97.70;;;;;;5109014;28;19912;-46
2022/03/25 07:17:18;;;;;;;;;;;9.50;99.20;;;;;;5076438;28;20092;-48
2022/03/25 07:19:43;;;;;;;;;;;9.70;98.00;;;;;;5076296;28;19912;-46
2022/03/25 07:22:09;;;;;;;;;;;9.70;96.60;;;;;;5076173;28;19908;-49
2022/03/25 07:24:34;;;;;;;;;;;9.80;97.70;;;;;;5092054;28;19943;-48
2022/03/25 07:27:00;;;;;;;;;;;9.90;96.60;;;;;;5075947;28;20367;-47
2022/03/25 07:29:25;;;;;;;;;;;9.80;95.30;;;;;;5075785;28;20304;-48
2022/03/25 07:31:51;;;;;;;;;;;9.90;95.60;;;;;;5075774;28;19955;-45
2022/03/25 07:34:16;;;;;;;;;;;10.00;94.50;;;;;;5076039;28;19926;-45
2022/03/25 07:36:42;;;;;;;;;;;9.90;94.10;;;;;;5076327;28;19924;-47
2022/03/25 07:39:08;;;;;;;;;;;9.70;93.60;;;;;;5091642;28;19931;-46
2022/03/25 07:41:34;;;;;;;;;;;9.90;95.00;;;;;;5075804;28;19948;-47
2022/03/25 07:43:59;;;;;;;;;;;10.10;93.30;;;;;;5076155;28;19908;-46
2022/03/25 07:46:25;;;;;;;;;;;10.20;92.50;;;;;;5076334;28;19919;-48
2022/03/25 07:48:51;;;;;;;;;;;10.10;92.50;;;;;;5075930;28;20363;-44
2022/03/25 07:51:16;;;;;;;;;;;10.10;93.10;;;;;;5074955;28;19909;-48
2022/03/25 07:53:43;;;;;;;;;;;10.30;93.20;;;;;;5075846;28;19912;-46
2022/03/25 07:56:09;;;;;;;;;;;10.40;91.60;;;;;;5075538;28;20007;-46
2022/03/25 07:58:35;;;;;;;;;;;10.40;91.40;;;;;;5075662;28;20384;-46
2022/03/25 08:01:00;;;;;;;;;;;10.40;91.50;;;;;;5075457;28;19909;-50
2022/03/25 08:03:26;;;;;;;;;;;10.30;91.60;;;;;;5075411;28;19909;-48
2022/03/25 08:05:52;;;;;;;;;;;10.40;91.80;;;;;;5075595;28;20266;-46
2022/03/25 08:08:20;;;;;;;;;;;10.60;91.70;;;;;;5075804;28;19909;-49
2022/03/25 08:10:47;;;;;;;;;;;10.60;91.50;;;;;;5075470;28;19912;-49
2022/03/25 08:13:13;;;;;;;;;;;10.90;91.20;;;;;;5074166;28;19908;-46
2022/03/25 08:15:38;;;;;;;;;;;11.00;91.50;;;;;;5074890;28;20324;-46
2022/03/25 08:18:10;;;;;;;;;;;10.90;91.80;;;;;;5075186;28;20477;-49
2022/03/25 08:20:39;;;;;;;;;;;11.20;91.50;;;;;;5075308;28;19914;-46
2022/03/25 08:23:06;;;;;;;;;;;11.30;91.40;;;;;;5073686;28;19913;-46
2022/03/25 08:28:16;;;;;;;;;;;11.30;90.50;;;;;;5075192;28;19915;-47
2022/03/25 08:30:42;;;;;;;;;;;11.60;89.30;;;;;;5075107;28;20007;-49
2022/03/25 08:33:08;;;;;;;;;;;11.70;89.60;;;;;;5074804;28;19955;-49
2022/03/25 08:35:35;;;;;;;;;;;11.80;88.00;;;;;;5074741;28;19923;-47
2022/03/25 08:38:00;;;;;;;;;;;12.00;88.10;;;;;;5073738;28;19962;-46
2022/03/25 08:40:28;;;;;;;;;;;12.20;85.80;;;;;;5074800;28;19908;-50
2022/03/25 08:42:53;;;;;;;;;;;12.20;85.60;;;;;;5074921;28;20335;-51
2022/03/25 08:45:19;;;;;;;;;;;12.30;83.70;;;;;;5073217;28;19908;-47
2022/03/25 08:47:44;;;;;;;;;;;12.40;85.40;;;;;;5074336;28;19908;-46
2022/03/25 08:50:12;;;;;;;;;;;12.40;83.20;;;;;;5074711;28;19943;-46
2022/03/25 08:52:38;;;;;;;;;;;12.60;84.20;;;;;;5074829;28;19908;-47
2022/03/25 08:55:04;;;;;;;;;;;12.90;82.50;;;;;;5074662;28;19916;-46
2022/03/25 08:57:30;;;;;;;;;;;13.00;81.70;;;;;;5074764;28;19919;-45
2022/03/25 08:59:56;;;;;;;;;;;12.90;79.20;;;;;;5106702;28;19909;-46
2022/03/25 09:02:22;;;;;;;;;;;13.10;78.90;;;;;;5074650;28;19908;-49
2022/03/25 09:04:47;;;;;;;;;;;13.10;80.30;;;;;;5074179;28;19909;-47
2022/03/25 09:07:13;;;;;;;;;;;13.20;79.60;;;;;;5074017;28;20374;-46
2022/03/25 09:09:39;;;;;;;;;;;13.30;82.10;;;;;;5074564;28;19916;-48
2022/03/25 09:12:04;;;;;;;;;;;13.40;78.50;;;;;;5074457;28;20404;-46
2022/03/25 09:14:30;;;;;;;;;;;13.50;77.80;;;;;;5074236;28;19912;-48
2022/03/25 09:16:56;;;;;;;;;;;13.60;77.70;;;;;;5074038;28;19917;-45
2022/03/25 09:19:21;;;;;;;;;;;13.60;77.70;;;;;;5074155;28;19954;-49
2022/03/25 09:21:47;;;;;;;;;;;13.70;75.30;;;;;;5073782;28;20007;-49
2022/03/25 09:24:12;;;;;;;;;;;13.80;77.40;;;;;;5074156;28;19908;-48
2022/03/25 09:26:38;;;;;;;;;;;13.70;76.00;;;;;;5072546;28;19908;-46
2022/03/25 09:29:04;;;;;;;;;;;14.00;75.30;;;;;;5074051;28;19912;-45
2022/03/25 09:31:30;;;;;;;;;;;14.10;73.90;;;;;;5074106;28;20324;-45
2022/03/25 09:35:08;;;;;;;;;;;14.20;73.40;;;;;;5072659;28;19908;-47
2022/03/25 09:36:41;;;;;;;;;;;14.40;73.70;;;;;;5073701;28;19916;-49
2022/03/25 09:39:06;;;;;;;;;;;14.80;72.70;;;;;;5073776;28;19915;-45
2022/03/25 09:41:32;;;;;;;;;;;14.60;69.60;;;;;;5073826;28;19908;-48
2022/03/25 09:43:58;;;;;;;;;;;14.80;70.90;;;;;;5072227;28;20339;-47
2022/03/25 09:46:24;;;;;;;;;;;14.90;70.10;;;;;;5073916;28;19914;-49
2022/03/25 09:48:50;;;;;;;;;;;15.00;69.10;;;;;;5074110;28;19908;-46
2022/03/25 09:51:15;;;;;;;;;;;15.00;69.70;;;;;;5073560;28;20345;-48
2022/03/25 09:53:41;;;;;;;;;;;15.00;69.90;;;;;;5073325;28;19908;-48
2022/03/25 09:56:06;;;;;;;;;;;15.00;69.50;;;;;;5073643;28;19916;-49
2022/03/25 09:58:32;;;;;;;;;;;15.00;70.00;;;;;;5073480;28;19912;-47
2022/03/25 10:00:59;;;;;;;;;;;15.00;71.30;;;;;;5073695;28;19915;-44
2022/03/25 10:03:27;;;;;;;;;;;15.30;68.30;;;;;;5073586;28;19913;-49
2022/03/25 10:05:57;;;;;;;;;;;15.50;72.50;;;;;;5073700;28;20279;-44
2022/03/25 10:08:30;;;;;;;;;;;15.90;70.90;;;;;;5073219;28;19916;-49
2022/03/25 10:10:55;;;;;;;;;;;15.80;67.10;;;;;;5073561;28;19961;-49
2022/03/25 10:13:21;;;;;;;;;;;15.70;68.50;;;;;;5072938;28;19912;-47
2022/03/25 10:15:46;;;;;;;;;;;15.70;66.60;;;;;;5088593;28;19912;-46
2022/03/25 10:18:12;;;;;;;;;;;15.60;67.80;;;;;;5072855;28;20373;-46
2022/03/25 10:20:39;;;;;;;;;;;15.70;68.60;;;;;;5072934;28;19999;-46
2022/03/25 10:23:07;;;;;;;;;;;16.10;67.50;;;;;;5073180;28;20003;-48
2022/03/25 10:25:35;;;;;;;;;;;16.00;64.60;;;;;;5088431;28;20079;-49
2022/03/25 10:28:01;;;;;;;;;;;16.00;65.30;;;;;;5072824;28;19908;-48
2022/03/25 10:30:39;;;;;;;;;;;16.00;65.80;;;;;;5073056;28;19921;-46
2022/03/25 10:33:09;;;;;;;;;;;15.90;64.20;;;;;;5072698;28;20283;-47
2022/03/25 10:35:55;;;;;;;;;;;15.80;66.20;;;;;;5073009;28;19912;-48
2022/03/25 10:38:24;;;;;;;;;;;15.80;67.40;;;;;;5072567;28;19913;-47
2022/03/25 10:40:50;;;;;;;;;;;16.10;66.40;;;;;;5072668;28;19947;-51
2022/03/25 10:43:16;;;;;;;;;;;16.60;66.70;;;;;;5073093;28;19920;-49
2022/03/25 10:45:41;;;;;;;;;;;16.60;64.70;;;;;;5073141;28;19909;-47
2022/03/25 10:48:11;;;;;;;;;;;16.70;64.80;;;;;;5075867;28;19916;-46
2022/03/25 10:50:53;;;;;;;;;;;16.70;64.90;;;;;;5076637;28;19908;-47
2022/03/25 10:53:20;;;;;;;;;;;16.60;64.30;;;;;;5077145;28;19915;-48
2022/03/25 10:55:56;;;;;;;;;;;16.40;64.30;;;;;;5076683;28;19935;-48
2022/03/25 10:58:22;;;;;;;;;;;16.30;64.70;;;;;;5092120;28;19913;-48
2022/03/25 11:00:48;;;;;;;;;;;16.60;64.40;;;;;;5076338;28;19920;-46
2022/03/25 11:03:14;;;;;;;;;;;16.20;63.30;;;;;;5076279;28;19908;-47
2022/03/25 11:05:40;;;;;;;;;;;16.10;64.50;;;;;;5076742;28;19917;-47
2022/03/25 11:08:05;;;;;;;;;;;16.20;64.40;;;;;;5076001;28;19908;-51
2022/03/25 11:10:32;;;;;;;;;;;16.40;68.50;;;;;;5076506;28;20016;-48
2022/03/25 11:13:01;;;;;;;;;;;16.80;65.00;;;;;;5076300;28;20351;-45
2022/03/25 11:15:27;;;;;;;;;;;16.70;63.50;;;;;;5076105;28;19912;-49
2022/03/25 11:17:53;;;;;;;;;;;16.60;63.40;;;;;;5076225;28;20275;-47
2022/03/25 11:20:20;;;;;;;;;;;16.70;64.80;;;;;;5075924;28;19909;-47
2022/03/25 11:22:45;;;;;;;;;;;16.90;64.60;;;;;;5076148;28;20375;-47
2022/03/25 11:25:13;;;;;;;;;;;16.80;63.10;;;;;;5076549;28;19959;-49
2022/03/25 11:27:40;;;;;;;;;;;17.00;62.80;;;;;;5076112;28;19932;-51
2022/03/25 11:30:09;;;;;;;;;;;17.40;62.40;;;;;;5074809;28;19927;-47
2022/03/25 11:32:46;;;;;;;;;;;17.30;63.30;;;;;;5076206;28;19909;-48
2022/03/25 11:35:16;;;;;;;;;;;17.40;62.00;;;;;;5076308;28;19919;-49
2022/03/25 11:37:42;;;;;;;;;;;17.60;62.10;;;;;;5076111;28;19964;-48
2022/03/25 11:40:18;;;;;;;;;;;17.70;61.70;;;;;;5075681;28;19919;-49
2022/03/25 11:42:43;;;;;;;;;;;17.50;61.10;;;;;;5075843;28;19909;-46
2022/03/25 11:45:25;;;;;;;;;;;17.40;61.10;;;;;;5075887;28;20370;-46
2022/03/25 11:47:59;;;;;;;;;;;17.70;60.40;;;;;;5075550;28;19908;-48
2022/03/25 11:50:25;;;;;;;;;;;17.00;59.70;;;;;;5075701;28;19920;-47
2022/03/25 11:52:50;;;;;;;;;;;17.20;59.90;;;;;;5075725;28;20282;-46
2022/03/25 11:55:16;;;;;;;;;;;17.00;58.30;;;;;;5075585;28;19912;-45
2022/03/25 11:57:44;;;;;;;;;;;17.30;57.10;;;;;;5075272;28;19958;-47
2022/03/25 12:00:20;;;;;;;;;;;17.30;58.20;;;;;;5075628;28;20339;-45
2022/03/25 12:02:58;;;;;;;;;;;16.80;56.80;;;;;;5075603;28;19908;-47
2022/03/25 12:05:24;;;;;;;;;;;16.60;55.30;;;;;;5075487;28;19919;-46
2022/03/25 12:08:08;;;;;;;;;;;17.10;55.30;;;;;;5075100;28;19991;-47
2022/03/25 12:10:42;;;;;;;;;;;17.10;55.50;;;;;;5075485;28;19909;-49
2022/03/25 12:13:08;;;;;;;;;;;17.50;54.70;;;;;;5075723;28;19916;-48
2022/03/25 12:15:41;;;;;;;;;;;17.90;54.90;;;;;;5075079;28;19920;-49
2022/03/25 12:18:25;;;;;;;;;;;18.10;57.00;;;;;;5074919;28;19913;-49
2022/03/25 12:20:50;;;;;;;;;;;17.70;56.20;;;;;;5075475;28;19943;-48
2022/03/25 12:23:16;;;;;;;;;;;17.20;58.20;;;;;;5074810;28;19932;-46
2022/03/25 12:25:44;;;;;;;;;;;17.60;56.00;;;;;;5075090;28;20224;-47
2022/03/25 12:28:10;;;;;;;;;;;17.70;54.90;;;;;;5074958;28;19909;-46
2022/03/25 12:30:36;;;;;;;;;;;17.50;55.50;;;;;;5074666;28;19920;-46
2022/03/25 12:33:05;;;;;;;;;;;17.70;55.30;;;;;;5074563;28;20347;-47
2022/03/25 12:35:31;;;;;;;;;;;17.90;55.30;;;;;;5074264;28;19918;-45
2022/03/25 12:38:10;;;;;;;;;;;18.20;53.80;;;;;;5074705;28;19981;-47
2022/03/25 12:40:36;;;;;;;;;;;18.30;54.90;;;;;;5074959;28;20015;-49
2022/03/25 12:43:03;;;;;;;;;;;18.20;54.20;;;;;;5074626;28;19916;-47
2022/03/25 12:45:30;;;;;;;;;;;18.00;54.10;;;;;;5074914;28;19909;-48
2022/03/25 12:47:56;;;;;;;;;;;17.70;53.10;;;;;;5074380;28;20346;-48
2022/03/25 12:50:25;;;;;;;;;;;18.00;52.30;;;;;;5074205;28;19915;-46
2022/03/25 12:52:59;;;;;;;;;;;18.30;51.90;;;;;;5074287;28;19941;-45
2022/03/25 12:55:24;;;;;;;;;;;18.60;51.70;;;;;;5074251;28;19916;-48
2022/03/25 12:57:50;;;;;;;;;;;18.50;53.30;;;;;;5073901;28;19923;-50
2022/03/25 13:00:16;;;;;;;;;;;18.40;54.10;;;;;;5074261;28;20342;-49
2022/03/25 13:02:44;;;;;;;;;;;18.30;54.40;;;;;;5074704;28;19950;-46
2022/03/25 13:05:11;;;;;;;;;;;17.80;54.90;;;;;;5074203;28;19909;-47
2022/03/25 13:07:38;;;;;;;;;;;18.20;54.80;;;;;;5074141;28;19931;-51
2022/03/25 13:10:04;;;;;;;;;;;18.10;54.20;;;;;;5072847;28;19922;-49
2022/03/25 13:12:30;;;;;;;;;;;18.10;54.10;;;;;;5073233;28;19971;-49
2022/03/25 13:14:56;;;;;;;;;;;18.20;53.90;;;;;;5074242;28;19922;-48
2022/03/25 13:17:37;;;;;;;;;;;18.20;53.50;;;;;;5073769;28;20398;-51
2022/03/25 13:20:08;;;;;;;;;;;18.20;52.90;;;;;;5073598;28;19936;-44
2022/03/25 13:22:34;;;;;;;;;;;17.90;52.00;;;;;;5073628;28;20000;-45
2022/03/25 13:25:00;;;;;;;;;;;17.60;51.70;;;;;;5072859;28;20314;-47
2022/03/25 13:27:27;;;;;;;;;;;17.70;51.80;;;;;;5073835;28;20301;-49
2022/03/25 13:29:52;;;;;;;;;;;17.90;51.40;;;;;;5073716;28;20224;-49
2022/03/25 13:32:50;;;;;;;;;;;17.80;51.40;;;;;;5073655;28;19923;-47
2022/03/25 13:35:15;;;;;;;;;;;17.90;50.80;;;;;;5061192;28;19923;-47
2022/03/25 13:37:41;;;;;;;;;;;18.20;52.40;;;;;;5073703;28;19908;-47
2022/03/25 13:40:25;;;;;;;;;;;18.60;51.40;;;;;;5073619;28;19908;-47
2022/03/25 13:42:55;;;;;;;;;;;18.60;51.10;;;;;;5073785;28;19948;-51
2022/03/25 13:45:20;;;;;;;;;;;18.60;51.00;;;;;;5073736;28;19908;-47
2022/03/25 13:47:56;;;;;;;;;;;18.30;50.70;;;;;;5072304;28;19916;-46
2022/03/25 13:50:21;;;;;;;;;;;17.80;51.80;;;;;;5073230;28;19979;-49
2022/03/25 13:52:59;;;;;;;;;;;17.90;52.00;;;;;;5106025;28;19966;-46
2022/03/25 13:55:36;;;;;;;;;;;17.90;52.40;;;;;;5088237;28;19916;-45
2022/03/25 13:58:02;;;;;;;;;;;17.90;51.50;;;;;;5073353;28;19932;-51
2022/03/25 14:00:36;;;;;;;;;;;18.10;53.80;;;;;;5073376;28;19951;-47
2022/03/25 14:03:02;;;;;;;;;;;18.40;53.40;;;;;;5073396;28;20212;-46
2022/03/25 14:05:31;;;;;;;;;;;18.20;52.90;;;;;;5072917;28;19909;-46
2022/03/25 14:07:58;;;;;;;;;;;18.40;52.30;;;;;;5073018;28;19908;-46
2022/03/25 14:10:24;;;;;;;;;;;18.40;51.20;;;;;;5073299;28;20003;-48
2022/03/25 14:12:56;;;;;;;;;;;18.30;52.20;;;;;;5073061;28;20393;-45
2022/03/25 14:15:25;;;;;;;;;;;18.40;51.40;;;;;;5072680;28;19919;-47
2022/03/25 14:17:51;;;;;;;;;;;18.20;51.40;;;;;;5072787;28;19912;-46
2022/03/25 14:20:17;;;;;;;;;;;18.00;52.30;;;;;;5073125;28;20278;-48
2022/03/25 14:22:44;;;;;;;;;;;18.20;52.40;;;;;;5072585;28;19912;-51
2022/03/25 14:25:13;;;;;;;;;;;18.20;51.30;;;;;;5072576;28;19908;-47